createdAt,value
2022-09-16T00:01:50.974Z,97671.53
2022-09-16T00:04:17.639Z,97669.69
2022-09-16T00:06:44.087Z,97669.69
2022-09-16T00:09:10.707Z,97665.97
2022-09-16T00:11:37.189Z,97668.88
2022-09-16T00:14:03.777Z,97677.66
2022-09-16T00:16:30.288Z,97677.09
2022-09-16T00:18:57.986Z,97670.19
2022-09-16T00:21:24.733Z,97673.66
2022-09-16T00:23:51.193Z,97674.72
2022-09-16T00:26:17.715Z,97665.16
2022-09-16T00:28:44.170Z,97667.81
2022-09-16T00:31:10.667Z,97667.03
2022-09-16T00:33:37.152Z,97661.72
2022-09-16T00:36:08.117Z,97652.41
2022-09-16T00:38:34.742Z,97652.41
2022-09-16T00:41:01.226Z,97654.78
2022-09-16T00:43:27.680Z,97642.56
2022-09-16T00:46:01.226Z,97650.81
2022-09-16T00:48:28.082Z,97648.94
2022-09-16T00:51:05.472Z,97653.47
2022-09-16T00:53:34.392Z,97655.06
2022-09-16T00:56:01.247Z,97655.84
2022-09-16T00:58:27.544Z,97647.88
2022-09-16T01:00:54.025Z,97646.00
2022-09-16T01:03:20.555Z,97644.16
2022-09-16T01:05:47.033Z,97646.00
2022-09-16T01:08:13.542Z,97649.75
2022-09-16T01:10:41.123Z,97643.34
2022-09-16T01:13:08.902Z,97652.41
2022-09-16T01:15:56.331Z,97644.72
2022-09-16T01:18:44.150Z,97644.97
2022-09-16T01:21:25.650Z,97642.56
2022-09-16T01:24:10.791Z,97634.59
2022-09-16T01:27:17.314Z,97648.69
2022-09-16T01:30:04.289Z,97644.44
2022-09-16T01:32:48.913Z,97647.09
2022-09-16T01:35:43.970Z,97648.97
2022-09-16T01:38:26.925Z,97655.34
2022-09-16T01:41:06.423Z,97650.81
2022-09-16T01:43:44.946Z,97651.09
2022-09-16T01:46:45.627Z,97656.94
2022-09-16T01:49:22.094Z,97651.09
2022-09-16T01:52:15.415Z,97655.34
2022-09-16T01:55:02.931Z,97658.78
2022-09-16T01:57:45.422Z,97648.16
2022-09-16T02:00:13.978Z,97647.09
2022-09-16T02:02:40.318Z,97645.50
2022-09-16T02:05:10.047Z,97651.34
2022-09-16T02:07:38.485Z,97650.28
2022-09-16T02:10:17.857Z,97643.38
2022-09-16T02:12:44.388Z,97648.69
2022-09-16T02:15:12.292Z,97643.38
2022-09-16T02:17:41.988Z,97642.59
2022-09-16T02:20:11.049Z,97637.56
2022-09-16T02:22:44.949Z,97632.25
2022-09-16T02:25:11.666Z,97634.91
2022-09-16T02:27:38.360Z,97635.97
2022-09-16T02:30:10.008Z,97637.78
2022-09-16T02:32:39.555Z,97635.13
2022-09-16T02:35:06.372Z,97624.78
2022-09-16T02:37:52.830Z,97626.66
2022-09-16T02:40:32.036Z,97631.44
2022-09-16T02:42:59.056Z,97627.16
2022-09-16T02:45:31.748Z,97626.91
2022-09-16T02:48:26.303Z,97633.03
2022-09-16T02:51:27.187Z,97638.06
2022-09-16T02:54:37.073Z,97644.97
2022-09-16T02:57:04.241Z,97642.31
2022-09-16T02:59:30.774Z,97639.41
2022-09-16T03:01:58.936Z,97645.78
2022-09-16T03:04:25.525Z,97641.50
2022-09-16T03:06:51.992Z,97640.47
2022-09-16T03:09:18.504Z,97648.69
2022-09-16T03:12:26.996Z,97645.25
2022-09-16T03:15:18.056Z,97641.53
2022-09-16T03:18:06.867Z,97640.72
2022-09-16T03:21:05.727Z,97645.53
2022-09-16T03:24:06.519Z,97634.09
2022-09-16T03:26:41.923Z,97641.25
2022-09-16T03:29:30.053Z,97637.00
2022-09-16T03:32:05.287Z,97627.72
2022-09-16T03:34:43.760Z,97630.38
2022-09-16T03:37:11.832Z,97622.63
2022-09-16T03:39:38.316Z,97624.28
2022-09-16T03:42:07.959Z,97625.06
2022-09-16T03:44:35.527Z,97623.19
2022-09-16T03:47:05.830Z,97616.28
2022-09-16T03:49:32.286Z,97616.22
2022-09-16T03:51:59.146Z,97615.16
2022-09-16T03:54:25.684Z,97613.31
2022-09-16T03:56:52.136Z,97610.38
2022-09-16T03:59:18.804Z,97616.47
2022-09-16T04:01:45.489Z,97615.34
2022-09-16T04:04:12.359Z,97611.66
2022-09-16T04:06:38.833Z,97614.78
2022-09-16T04:09:07.005Z,97613.22
2022-09-16T04:11:34.330Z,97612.94
2022-09-16T04:14:01.034Z,97605.75
2022-09-16T04:16:27.754Z,97611.84
2022-09-16T04:18:54.221Z,97614.50
2022-09-16T04:21:20.662Z,97609.47
2022-09-16T04:23:47.171Z,97606.31
2022-09-16T04:26:13.689Z,97609.00
2022-09-16T04:28:40.144Z,97604.50
2022-09-16T04:31:07.977Z,97603.69
2022-09-16T04:33:34.989Z,97597.06
2022-09-16T04:36:14.878Z,97608.75
2022-09-16T04:38:42.658Z,97606.59
2022-09-16T04:41:13.204Z,97607.66
2022-09-16T04:43:39.828Z,97607.66
2022-09-16T04:46:06.725Z,97603.94
2022-09-16T04:48:33.296Z,97610.56
2022-09-16T04:51:08.262Z,97598.88
2022-09-16T04:53:35.020Z,97604.94
2022-09-16T04:56:09.567Z,97612.69
2022-09-16T04:58:36.485Z,97602.31
2022-09-16T05:01:13.009Z,97599.16
2022-09-16T05:03:44.570Z,97601.81
2022-09-16T05:06:24.314Z,97599.66
2022-09-16T05:08:51.369Z,97603.91
2022-09-16T05:11:22.824Z,97603.91
2022-09-16T05:13:49.461Z,97609.50
2022-09-16T05:16:17.462Z,97607.38
2022-09-16T05:18:46.291Z,97608.72
2022-09-16T05:21:14.000Z,97609.50
2022-09-16T05:23:44.516Z,97611.38
2022-09-16T05:26:15.293Z,97606.34
2022-09-16T05:28:41.835Z,97605.53
2022-09-16T05:31:30.599Z,97601.25
2022-09-16T05:34:05.103Z,97611.09
2022-09-16T05:36:32.889Z,97607.66
2022-09-16T05:41:45.948Z,97605.53
2022-09-16T05:44:12.566Z,97618.03
2022-09-16T05:46:40.741Z,97624.41
2022-09-16T05:49:07.993Z,97622.56
2022-09-16T05:51:34.491Z,97616.72
2022-09-16T05:54:00.949Z,97622.03
2022-09-16T05:56:29.069Z,97622.28
2022-09-16T05:58:56.625Z,97620.72
2022-09-16T06:01:24.980Z,97631.09
2022-09-16T06:03:52.036Z,97624.16
2022-09-16T06:06:20.656Z,97610.38
2022-09-16T06:08:47.106Z,97620.72
2022-09-16T06:11:13.584Z,97618.84
2022-09-16T06:13:40.248Z,97620.72
2022-09-16T06:16:07.395Z,97619.91
2022-09-16T06:18:33.979Z,97617.25
2022-09-16T06:21:04.696Z,97611.16
2022-09-16T06:23:31.785Z,97614.59
2022-09-16T06:26:06.492Z,97615.66
2022-09-16T06:28:32.972Z,97622.06
2022-09-16T06:31:06.364Z,97618.34
2022-09-16T06:33:33.895Z,97610.63
2022-09-16T06:36:11.092Z,97621.28
2022-09-16T06:38:37.567Z,97619.66
2022-09-16T06:41:05.556Z,97620.47
2022-09-16T06:43:32.267Z,97626.31
2022-09-16T06:46:02.811Z,97620.47
2022-09-16T06:48:29.568Z,97614.63
2022-09-16T06:51:00.528Z,97609.31
2022-09-16T06:53:27.347Z,97614.63
2022-09-16T06:55:53.824Z,97611.16
2022-09-16T06:58:20.278Z,97614.91
2022-09-16T07:00:46.740Z,97610.66
2022-09-16T07:03:13.195Z,97619.94
2022-09-16T07:05:40.243Z,97614.63
2022-09-16T07:08:06.694Z,97620.22
2022-09-16T07:10:33.271Z,97627.94
2022-09-16T07:12:59.886Z,97624.47
2022-09-16T07:15:26.325Z,97622.59
2022-09-16T07:17:56.121Z,97619.16
2022-09-16T07:20:22.575Z,97619.94
2022-09-16T07:22:50.746Z,97626.34
2022-09-16T07:25:17.269Z,97630.59
2022-09-16T07:27:43.704Z,97627.94
2022-09-16T07:30:10.525Z,97626.59
2022-09-16T07:32:38.336Z,97623.94
2022-09-16T07:35:05.099Z,97637.50
2022-09-16T07:37:31.576Z,97639.91
2022-09-16T07:39:58.197Z,97638.31
2022-09-16T07:42:24.656Z,97637.53
2022-09-16T07:44:51.108Z,97643.34
2022-09-16T07:47:21.970Z,97647.88
2022-09-16T07:49:48.986Z,97647.88
2022-09-16T07:52:16.505Z,97645.78
2022-09-16T07:54:42.946Z,97640.69
2022-09-16T07:57:09.389Z,97638.03
2022-09-16T07:59:35.875Z,97646.47
2022-09-16T08:02:02.489Z,97637.63
2022-09-16T08:04:29.139Z,97644.81
2022-09-16T08:06:55.628Z,97646.66
2022-09-16T08:09:43.076Z,97650.94
2022-09-16T08:12:10.784Z,97653.56
2022-09-16T08:14:37.390Z,97662.63
2022-09-16T08:17:03.918Z,97654.88
2022-09-16T08:19:30.806Z,97659.66
2022-09-16T08:21:57.290Z,97661.00
2022-09-16T08:24:23.782Z,97660.72
2022-09-16T08:26:50.311Z,97657.00
2022-09-16T08:29:17.209Z,97664.19
2022-09-16T08:31:44.099Z,97666.56
2022-09-16T08:34:10.580Z,97656.41
2022-09-16T08:36:37.019Z,97663.59
2022-09-16T08:39:03.497Z,97660.66
2022-09-16T08:41:42.596Z,97669.72
2022-09-16T08:44:29.371Z,97653.25
2022-09-16T08:47:00.217Z,97671.63
2022-09-16T08:49:41.303Z,97672.44
2022-09-16T08:52:16.090Z,97667.66
2022-09-16T08:54:45.271Z,97671.97
2022-09-16T08:57:17.875Z,97675.44
2022-09-16T08:59:49.979Z,97673.28
2022-09-16T09:02:38.564Z,97670.56
2022-09-16T09:05:47.370Z,97670.50
2022-09-16T09:08:38.038Z,97660.34
2022-09-16T09:11:15.960Z,97671.78
2022-09-16T09:14:04.124Z,97663.06
2022-09-16T09:16:36.665Z,97665.75
2022-09-16T09:19:28.149Z,97663.38
2022-09-16T09:21:58.752Z,97667.38
2022-09-16T09:24:36.570Z,97663.44
2022-09-16T09:27:23.426Z,97663.66
2022-09-16T09:30:13.455Z,97642.94
2022-09-16T09:33:44.391Z,97645.84
2022-09-16T09:36:26.069Z,97652.19
2022-09-16T09:39:20.785Z,97651.94
2022-09-16T09:41:48.922Z,97653.31
2022-09-16T09:44:38.994Z,97646.66
2022-09-16T09:47:11.738Z,97655.97
2022-09-16T09:49:43.795Z,97649.88
2022-09-16T09:52:23.576Z,97648.81
2022-09-16T09:54:51.075Z,97653.06
2022-09-16T09:57:39.376Z,97648.78
2022-09-16T10:00:14.890Z,97644.25
2022-09-16T10:02:47.481Z,97639.50
2022-09-16T10:05:23.131Z,97634.94
2022-09-16T10:07:55.258Z,97633.88
2022-09-16T10:10:23.071Z,97622.88
2022-09-16T10:12:49.650Z,97623.44
2022-09-16T10:15:42.622Z,97629.88
2022-09-16T10:18:20.225Z,97627.63
2022-09-16T10:20:47.695Z,97619.09
2022-09-16T10:23:15.910Z,97625.97
2022-09-16T10:25:42.779Z,97612.59
2022-09-16T10:28:25.707Z,97622.03
2022-09-16T10:30:57.976Z,97606.09
2022-09-16T10:33:34.692Z,97619.34
2022-09-16T10:36:03.242Z,97612.81
2022-09-16T10:38:48.236Z,97618.09
2022-09-16T10:41:27.814Z,97610.41
2022-09-16T10:43:59.729Z,97607.47
2022-09-16T10:46:26.234Z,97606.94
2022-09-16T10:48:54.189Z,97611.72
2022-09-16T10:51:25.373Z,97610.91
2022-09-16T10:53:54.064Z,97612.88
2022-09-16T10:56:25.439Z,97590.78
2022-09-16T10:59:05.965Z,97599.91
2022-09-16T11:01:54.765Z,97595.31
2022-09-16T11:04:42.369Z,97597.94
2022-09-16T11:07:28.308Z,97600.56
2022-09-16T11:10:16.541Z,97602.59
2022-09-16T11:13:20.291Z,97601.84
2022-09-16T11:16:11.420Z,97602.06
2022-09-16T11:18:57.862Z,97586.34
2022-09-16T11:21:37.161Z,97581.00
2022-09-16T11:24:12.353Z,97592.91
2022-09-16T11:26:51.330Z,97586.31
2022-09-16T11:29:39.586Z,97587.31
2022-09-16T11:32:21.260Z,97580.41
2022-09-16T11:35:10.339Z,97582.47
2022-09-16T11:38:03.566Z,97578.94
2022-09-16T11:40:48.379Z,97561.16
2022-09-16T11:43:33.125Z,97576.31
2022-09-16T11:46:06.288Z,97571.63
2022-09-16T11:48:37.196Z,97569.66
2022-09-16T11:51:12.876Z,97571.03
2022-09-16T11:53:46.368Z,97557.22
2022-09-16T11:56:19.692Z,97568.66
2022-09-16T11:58:54.911Z,97575.56
2022-09-16T12:01:40.160Z,97567.53
2022-09-16T12:04:20.961Z,97561.38
2022-09-16T12:07:04.689Z,97562.19
2022-09-16T12:09:36.984Z,97559.81
2022-09-16T12:12:12.077Z,97559.00
2022-09-16T12:14:42.087Z,97559.06
2022-09-16T12:17:20.289Z,97545.53
2022-09-16T12:19:50.840Z,97544.47
2022-09-16T12:22:20.982Z,97543.09
2022-09-16T12:24:55.614Z,97551.16
2022-09-16T12:27:37.197Z,97546.88
2022-09-16T12:30:06.841Z,97553.56
2022-09-16T12:32:43.681Z,97554.69
2022-09-16T12:35:19.213Z,97548.31
2022-09-16T12:37:52.520Z,97556.81
2022-09-16T12:40:26.624Z,97563.22
2022-09-16T12:43:11.765Z,97561.41
2022-09-16T12:45:56.985Z,97551.28
2022-09-16T12:48:42.350Z,97573.69
2022-09-16T12:51:35.394Z,97578.75
2022-09-16T12:55:06.606Z,97588.38
2022-09-16T12:58:03.346Z,97585.47
2022-09-16T13:00:35.717Z,97590.75
2022-09-16T13:03:22.498Z,97595.03
2022-09-16T13:05:50.968Z,97588.94
2022-09-16T13:08:27.224Z,97587.31
2022-09-16T13:11:30.318Z,97587.59
2022-09-16T13:13:50.160Z,97585.47
2022-09-16T13:16:27.375Z,97582.25
2022-09-16T13:19:07.533Z,97582.81
2022-09-16T13:21:42.608Z,97579.31
2022-09-16T13:24:12.039Z,97593.44
2022-09-16T13:26:42.032Z,97588.91
2022-09-16T13:29:30.858Z,97584.63
2022-09-16T13:31:57.597Z,97573.78
2022-09-16T13:34:24.840Z,97561.78
2022-09-16T13:36:51.325Z,97560.19
2022-09-16T13:39:32.183Z,97572.97
2022-09-16T13:42:10.137Z,97572.16
2022-09-16T13:44:41.510Z,97562.06
2022-09-16T13:47:10.893Z,97568.44
2022-09-16T13:49:59.433Z,97559.38
2022-09-16T13:52:30.678Z,97564.19
2022-09-16T13:55:17.088Z,97567.84
2022-09-16T13:58:05.367Z,97554.00
2022-09-16T14:00:40.865Z,97553.50
2022-09-16T14:03:19.552Z,97544.19
2022-09-16T14:06:19.308Z,97539.41
2022-09-16T14:09:04.466Z,97535.13
2022-09-16T14:11:53.771Z,97529.03
2022-09-16T14:14:46.464Z,97533.84
2022-09-16T14:17:38.681Z,97527.19
2022-09-16T14:20:05.588Z,97529.84
2022-09-16T14:22:33.659Z,97532.50
2022-09-16T14:25:06.434Z,97530.66
2022-09-16T14:27:40.165Z,97521.38
2022-09-16T14:30:18.388Z,97524.81
2022-09-16T14:32:45.107Z,97512.03
2022-09-16T14:35:23.038Z,97512.31
2022-09-16T14:37:55.260Z,97508.91
2022-09-16T14:40:22.746Z,97510.78
2022-09-16T14:42:57.902Z,97508.66
2022-09-16T14:45:24.372Z,97510.22
2022-09-16T14:47:52.574Z,97512.91
2022-09-16T14:50:24.012Z,97508.69
2022-09-16T14:53:00.906Z,97524.66
2022-09-16T14:55:29.978Z,97505.47
2022-09-16T14:57:57.315Z,97520.91
2022-09-16T15:00:28.540Z,97515.28
2022-09-16T15:03:03.308Z,97509.22
2022-09-16T15:05:33.206Z,97517.19
2022-09-16T15:08:23.304Z,97515.31
2022-09-16T15:10:53.109Z,97504.44
2022-09-16T15:13:21.379Z,97498.88
2022-09-16T15:15:49.732Z,97503.69
2022-09-16T15:18:21.471Z,97501.00
2022-09-16T15:20:53.271Z,97512.91
2022-09-16T15:23:22.606Z,97509.75
2022-09-16T15:25:57.304Z,97509.75
2022-09-16T15:28:23.777Z,97528.41
2022-09-16T15:30:55.278Z,97523.09
2022-09-16T15:33:34.754Z,97535.31
2022-09-16T15:36:02.184Z,97533.19
2022-09-16T15:38:28.723Z,97534.78
2022-09-16T15:41:05.534Z,97547.03
2022-09-16T15:43:36.477Z,97539.06
2022-09-16T15:46:04.807Z,97540.91
2022-09-16T15:48:33.923Z,97535.31
2022-09-16T15:51:05.094Z,97543.81
2022-09-16T15:53:31.402Z,97558.47
2022-09-16T15:55:57.792Z,97545.44
2022-09-16T15:58:33.443Z,97544.13
2022-09-16T16:01:04.791Z,97549.97
2022-09-16T16:03:56.271Z,97544.16
2022-09-16T16:06:58.879Z,97543.81
2022-09-16T16:09:28.971Z,97526.25
2022-09-16T16:11:58.858Z,97528.59
2022-09-16T16:14:34.971Z,97524.88
2022-09-16T16:17:24.835Z,97524.88
2022-09-16T16:19:51.343Z,97525.94
2022-09-16T16:22:17.940Z,97520.31
2022-09-16T16:24:45.375Z,97517.66
2022-09-16T16:27:12.979Z,97522.38
2022-09-16T16:29:39.560Z,97525.78
2022-09-16T16:32:10.591Z,97517.97
2022-09-16T16:34:38.941Z,97527.00
2022-09-16T16:37:05.886Z,97514.50
2022-09-16T16:39:32.389Z,97522.47
2022-09-16T16:41:58.902Z,97515.03
2022-09-16T16:44:25.587Z,97517.69
2022-09-16T16:46:52.911Z,97520.97
2022-09-16T16:49:19.408Z,97516.78
2022-09-16T16:51:47.836Z,97505.38
2022-09-16T16:54:14.372Z,97506.72
2022-09-16T16:56:40.887Z,97505.84
2022-09-16T16:59:08.515Z,97500.25
2022-09-16T17:01:35.660Z,97502.88
2022-09-16T17:04:02.763Z,97505.50
2022-09-16T17:06:29.788Z,97503.38
2022-09-16T17:08:56.537Z,97503.94
2022-09-16T17:11:26.141Z,97513.25
2022-09-16T17:13:53.856Z,97501.00
2022-09-16T17:16:22.171Z,97509.25
2022-09-16T17:18:48.751Z,97501.56
2022-09-16T17:21:26.252Z,97509.00
2022-09-16T17:23:52.947Z,97511.66
2022-09-16T17:26:19.626Z,97513.53
2022-09-16T17:28:46.911Z,97519.91
2022-09-16T17:31:21.448Z,97520.44
2022-09-16T17:33:48.018Z,97526.31
2022-09-16T17:36:15.822Z,97531.63
2022-09-16T17:38:42.294Z,97551.31
2022-09-16T17:41:10.592Z,97551.31
2022-09-16T17:43:37.120Z,97564.84
2022-09-16T17:46:05.242Z,97560.31
2022-09-16T17:48:31.993Z,97556.34
2022-09-16T17:50:58.742Z,97567.78
2022-09-16T17:53:26.957Z,97547.84
2022-09-16T17:56:07.468Z,97551.78
2022-09-16T17:58:33.967Z,97553.91
2022-09-16T18:01:20.198Z,97552.84
2022-09-16T18:03:47.875Z,97546.44
2022-09-16T18:06:22.615Z,97543.78
2022-09-16T18:08:49.559Z,97541.13
2022-09-16T18:11:16.614Z,97539.53
2022-09-16T18:13:43.124Z,97534.50
2022-09-16T18:16:14.251Z,97539.28
2022-09-16T18:18:41.380Z,97541.94
2022-09-16T18:21:09.076Z,97541.44
2022-09-16T18:23:35.530Z,97543.84
2022-09-16T18:26:06.263Z,97543.84
2022-09-16T18:28:58.191Z,97539.31
2022-09-16T18:31:24.905Z,97546.22
2022-09-16T18:33:52.565Z,97556.06
2022-09-16T18:36:19.210Z,97557.41
2022-09-16T18:38:45.667Z,97562.44
2022-09-16T18:41:18.143Z,97570.41
2022-09-16T18:43:45.604Z,97555.25
2022-09-16T18:46:16.851Z,97559.53
2022-09-16T18:48:44.488Z,97552.84
2022-09-16T18:51:18.940Z,97554.41
2022-09-16T18:53:45.772Z,97561.31
2022-09-16T18:56:16.690Z,97571.97
2022-09-16T18:58:54.387Z,97569.84
2022-09-16T19:01:29.512Z,97555.47
2022-09-16T19:03:59.155Z,97568.47
2022-09-16T19:06:30.171Z,97564.78
2022-09-16T19:08:56.688Z,97568.22
2022-09-16T19:11:23.309Z,97568.22
2022-09-16T19:13:49.820Z,97567.16
2022-09-16T19:16:16.384Z,97567.94
2022-09-16T19:18:42.849Z,97574.38
2022-09-16T19:21:17.219Z,97568.47
2022-09-16T19:23:44.935Z,97575.94
2022-09-16T19:26:11.472Z,97563.41
2022-09-16T19:28:38.829Z,97565.53
2022-09-16T19:31:07.053Z,97569.00
2022-09-16T19:33:33.503Z,97551.72
2022-09-16T19:35:59.985Z,97561.31
2022-09-16T19:38:28.299Z,97557.28
2022-09-16T19:41:04.212Z,97563.38
2022-09-16T19:43:30.897Z,97563.69
2022-09-16T19:46:08.269Z,97561.31
2022-09-16T19:48:35.700Z,97561.81
2022-09-16T19:51:02.142Z,97563.69
2022-09-16T19:53:28.748Z,97566.88
2022-09-16T19:56:02.963Z,97560.75
2022-09-16T19:58:31.020Z,97565.31
2022-09-16T20:01:03.137Z,97569.84
2022-09-16T20:03:30.159Z,97569.06
2022-09-16T20:06:10.652Z,97568.50
2022-09-16T20:08:37.922Z,97568.53
2022-09-16T20:11:09.775Z,97569.88
2022-09-16T20:13:36.385Z,97568.78
2022-09-16T20:16:04.084Z,97577.84
2022-09-16T20:18:31.158Z,97580.22
2022-09-16T20:21:13.125Z,97583.16
2022-09-16T20:23:39.947Z,97581.84
2022-09-16T20:26:08.151Z,97576.81
2022-09-16T20:28:41.690Z,97584.78
2022-09-16T20:31:08.611Z,97588.22
2022-09-16T20:33:35.171Z,97586.66
2022-09-16T20:36:09.860Z,97589.31
2022-09-16T20:38:36.690Z,97589.84
2022-09-16T20:41:07.646Z,97595.19
2022-09-16T20:43:34.774Z,97590.63
2022-09-16T20:46:09.087Z,97594.91
2022-09-16T20:48:35.674Z,97589.56
2022-09-16T20:51:04.123Z,97589.59
2022-09-16T20:53:30.604Z,97584.00
2022-09-16T20:56:01.709Z,97589.03
2022-09-16T20:58:28.172Z,97573.38
2022-09-16T21:00:54.694Z,97584.25
2022-09-16T21:03:21.188Z,97586.91
2022-09-16T21:05:47.676Z,97588.00
2022-09-16T21:08:14.122Z,97586.69
2022-09-16T21:10:40.566Z,97584.81
2022-09-16T21:13:07.025Z,97585.06
2022-09-16T21:15:33.470Z,97581.38
2022-09-16T21:18:00.769Z,97574.44
2022-09-16T21:20:27.219Z,97582.97
2022-09-16T21:22:53.677Z,97589.59
2022-09-16T21:25:20.120Z,97586.44
2022-09-16T21:27:46.566Z,97590.16
2022-09-16T21:30:13.602Z,97593.06
2022-09-16T21:32:40.064Z,97582.44
2022-09-16T21:35:06.650Z,97599.72
2022-09-16T21:37:33.265Z,97590.66
2022-09-16T21:40:00.529Z,97594.06
2022-09-16T21:42:27.047Z,97600.22
2022-09-16T21:44:57.888Z,97595.69
2022-09-16T21:47:24.326Z,97600.44
2022-09-16T21:49:52.040Z,97607.91
2022-09-16T21:53:06.005Z,97603.66
2022-09-16T21:55:32.436Z,97602.88
2022-09-16T21:57:58.856Z,97600.47
2022-09-16T22:00:25.503Z,97595.94
2022-09-16T22:02:51.975Z,97610.59
2022-09-16T22:05:18.637Z,97615.13
2022-09-16T22:07:45.151Z,97609.81
2022-09-16T22:10:11.558Z,97609.53
2022-09-16T22:12:38.064Z,97619.91
2022-09-16T22:15:05.167Z,97611.41
2022-09-16T22:17:31.589Z,97612.47
2022-09-16T22:19:58.002Z,97616.19
2022-09-16T22:22:24.426Z,97622.28
2022-09-16T22:24:50.839Z,97616.75
2022-09-16T22:27:17.254Z,97617.00
2022-09-16T22:29:43.662Z,97615.66
2022-09-16T22:32:10.079Z,97605.84
2022-09-16T22:34:36.703Z,97614.34
2022-09-16T22:37:03.139Z,97606.38
2022-09-16T22:39:29.562Z,97610.63
2022-09-16T22:41:56.642Z,97608.22
2022-09-16T22:44:23.069Z,97603.72
2022-09-16T22:46:49.546Z,97612.75
2022-09-16T22:49:16.155Z,97608.22
2022-09-16T22:51:42.608Z,97603.97
2022-09-16T22:54:09.016Z,97604.50
2022-09-16T22:56:35.508Z,97603.47
2022-09-16T22:59:02.914Z,97609.03
2022-09-16T23:01:34.820Z,97608.00
2022-09-16T23:04:01.886Z,97607.47
2022-09-16T23:06:29.770Z,97609.31
2022-09-16T23:08:56.722Z,97611.19
2022-09-16T23:11:24.919Z,97614.63
2022-09-16T23:13:52.679Z,97618.38
2022-09-16T23:16:24.006Z,97613.56
2022-09-16T23:18:50.557Z,97610.91
2022-09-16T23:21:18.324Z,97612.50
2022-09-16T23:23:48.463Z,97610.91
2022-09-16T23:26:17.987Z,97606.69
2022-09-16T23:28:44.582Z,97621.28
2022-09-16T23:31:15.567Z,97612.78
2022-09-16T23:33:42.104Z,97611.72
2022-09-16T23:36:13.946Z,97622.34
2022-09-16T23:38:40.584Z,97620.47
2022-09-16T23:41:10.675Z,97624.22
2022-09-16T23:43:41.558Z,97623.41
2022-09-16T23:46:11.679Z,97622.63
2022-09-16T23:48:38.151Z,97615.72
2022-09-16T23:51:04.971Z,97629.00
2022-09-16T23:53:31.940Z,97629.00
2022-09-16T23:55:58.341Z,97622.34
2022-09-16T23:58:24.777Z,97624.22
